Time;durP1;ratioP1;P1;durP2;ratioP2;P2;SDS_P1;SDS_P2;PMS_P1;PMS_P2;Temp;Humidity;BMP_temperature;BMP_pressure;BME280_temperature;BME280_humidity;BME280_pressure;Samples;Min_cycle;Max_cycle;Signal;HPM_P1;HPM_P2
2022/07/17 00:02:12;;;;;;;;;3.75;3.00;;;;;24.46;35.37;102186.41;5063257;28;45165;-62
2022/07/17 00:04:37;;;;;;;;;4.50;3.50;;;;;24.46;35.20;102189.09;5063912;28;45265;-62
2022/07/17 00:07:03;;;;;;;;;3.00;3.00;;;;;24.42;35.37;102185.03;5063622;28;45145;-62
2022/07/17 00:09:29;;;;;;;;;2.25;2.25;;;;;24.39;35.72;102177.22;5064147;28;45236;-62
2022/07/17 00:11:54;;;;;;;;;3.00;3.00;;;;;24.39;35.93;102184.44;5067806;28;45250;-62
2022/07/17 00:14:19;;;;;;;;;5.50;4.00;;;;;24.36;35.28;102187.44;5063933;28;45430;-63
2022/07/17 00:16:45;;;;;;;;;4.50;3.50;;;;;24.30;35.63;102183.44;5063825;28;45566;-62
2022/07/17 00:19:10;;;;;;;;;4.50;3.75;;;;;24.27;35.99;102183.75;5063874;28;45532;-62
2022/07/17 00:21:36;;;;;;;;;4.00;3.75;;;;;24.27;35.56;102177.50;5063724;28;45540;-62
2022/07/17 00:24:01;;;;;;;;;4.75;3.75;;;;;24.24;35.68;102173.25;5063853;28;45338;-63
2022/07/17 00:26:27;;;;;;;;;4.75;3.00;;;;;24.21;36.20;102177.09;5063486;28;45604;-62
2022/07/17 00:28:52;;;;;;;;;4.00;3.00;;;;;24.17;35.62;102181.06;5063741;28;45320;-62
2022/07/17 00:31:18;;;;;;;;;5.75;3.25;;;;;24.13;35.84;102178.81;5063567;28;45387;-63
2022/07/17 00:33:43;;;;;;;;;3.00;3.00;;;;;24.10;36.22;102187.19;5063613;28;45257;-63
2022/07/17 00:36:09;;;;;;;;;3.25;3.00;;;;;24.07;36.13;102182.06;5063693;28;45352;-62
2022/07/17 00:38:34;;;;;;;;;3.00;2.25;;;;;24.06;36.28;102183.91;5063580;28;46365;-63
2022/07/17 00:41:00;;;;;;;;;6.00;4.00;;;;;24.01;36.41;102178.09;5063151;28;45313;-62
2022/07/17 00:43:26;;;;;;;;;2.00;2.00;;;;;23.98;36.58;102174.84;5063683;28;45477;-63
2022/07/17 00:46:03;;;;;;;;;3.75;3.75;;;;;23.95;36.53;102176.84;5063423;28;45535;-62
2022/07/17 00:48:28;;;;;;;;;2.50;2.50;;;;;23.92;36.50;102176.28;5063112;28;45391;-62
2022/07/17 00:50:54;;;;;;;;;4.25;3.75;;;;;23.86;36.76;102183.09;5062918;28;45275;-63
2022/07/17 00:53:21;;;;;;;;;4.00;2.75;;;;;23.83;36.78;102182.50;5063453;28;45234;-64
2022/07/17 00:55:48;;;;;;;;;3.00;3.00;;;;;23.79;36.65;102178.44;5063172;28;45393;-62
2022/07/17 00:58:19;;;;;;;;;2.75;2.50;;;;;23.76;36.94;102189.44;5063128;28;45347;-62
2022/07/17 01:00:45;;;;;;;;;5.50;4.00;;;;;23.73;36.58;102192.44;5062891;28;45152;-62
2022/07/17 01:03:10;;;;;;;;;4.00;3.00;;;;;23.71;36.94;102194.44;5063160;28;45292;-62
2022/07/17 01:05:36;;;;;;;;;2.50;2.50;;;;;23.70;36.75;102187.31;5063143;28;45157;-62
2022/07/17 01:08:01;;;;;;;;;4.25;4.25;;;;;23.68;37.16;102185.63;5062755;28;45387;-62
2022/07/17 01:10:27;;;;;;;;;4.00;2.00;;;;;23.68;36.66;102190.16;5062770;28;45338;-62
2022/07/17 01:12:52;;;;;;;;;4.75;2.00;;;;;23.65;36.80;102185.91;5067273;28;45326;-62
2022/07/17 01:15:18;;;;;;;;;2.75;2.75;;;;;23.64;37.04;102194.13;5063019;28;45518;-62
2022/07/17 01:17:44;;;;;;;;;4.25;3.00;;;;;23.61;37.05;102189.88;5062743;28;46071;-62
2022/07/17 01:20:11;;;;;;;;;5.75;4.25;;;;;23.60;36.82;102190.00;5062688;28;45335;-62
2022/07/17 01:22:48;;;;;;;;;4.00;4.00;;;;;23.57;36.96;102191.13;5063123;28;45223;-62
2022/07/17 01:25:15;;;;;;;;;3.00;3.00;;;;;23.56;37.29;102186.72;5062402;28;45442;-62
2022/07/17 01:27:41;;;;;;;;;2.25;2.25;;;;;23.56;37.22;102189.44;5062583;28;46621;-62
2022/07/17 01:30:08;;;;;;;;;2.50;1.75;;;;;23.51;36.86;102191.66;5062483;28;45438;-62
2022/07/17 01:32:35;;;;;;;;;2.00;2.00;;;;;23.50;37.26;102194.50;5062500;28;45377;-62
2022/07/17 01:35:01;;;;;;;;;3.75;2.75;;;;;23.48;37.22;102201.88;5062520;28;45237;-62
2022/07/17 01:37:28;;;;;;;;;2.25;2.00;;;;;23.48;37.77;102194.66;5062523;28;45401;-62
2022/07/17 01:39:53;;;;;;;;;2.50;2.50;;;;;23.48;37.28;102191.13;5062080;28;45275;-62
2022/07/17 01:42:21;;;;;;;;;4.25;3.00;;;;;23.44;37.77;102189.69;5062829;28;45264;-62
2022/07/17 01:44:46;;;;;;;;;3.75;3.75;;;;;23.42;37.40;102180.91;5062472;28;45334;-63
2022/07/17 01:47:14;;;;;;;;;3.75;3.75;;;;;23.39;37.77;102190.13;5062104;28;45961;-63
2022/07/17 01:49:43;;;;;;;;;3.75;3.75;;;;;23.36;38.03;102185.84;5062242;28;45303;-62
2022/07/17 01:52:09;;;;;;;;;3.75;2.75;;;;;23.34;37.51;102182.44;5062372;28;45417;-62
2022/07/17 01:54:34;;;;;;;;;2.00;2.00;;;;;23.32;37.55;102176.38;5062402;28;45278;-62
2022/07/17 01:57:00;;;;;;;;;5.00;3.00;;;;;23.33;37.82;102177.22;5061997;28;46075;-62
2022/07/17 01:59:25;;;;;;;;;4.00;3.00;;;;;23.31;37.65;102176.53;5062179;28;45177;-62
2022/07/17 02:01:51;;;;;;;;;2.75;2.75;;;;;23.29;37.88;102173.09;5062269;28;45606;-62
2022/07/17 02:04:16;;;;;;;;;4.00;3.00;;;;;23.28;37.96;102171.41;5062300;28;45670;-62
2022/07/17 02:06:42;;;;;;;;;3.25;2.75;;;;;23.25;37.86;102171.69;5061910;28;45394;-62
2022/07/17 02:09:07;;;;;;;;;4.00;3.00;;;;;23.21;37.96;102175.63;5062101;28;45301;-62
2022/07/17 02:11:32;;;;;;;;;4.75;4.00;;;;;23.19;37.73;102178.47;5065833;28;45240;-62
2022/07/17 02:13:58;;;;;;;;;3.25;3.25;;;;;23.19;37.99;102169.53;5062715;27;45268;-62
2022/07/17 02:16:23;;;;;;;;;3.00;3.00;;;;;23.14;38.46;102175.31;5061873;28;45905;-62
2022/07/17 02:18:49;;;;;;;;;3.25;3.25;;;;;23.08;38.65;102174.06;5061777;28;45374;-62
2022/07/17 02:21:14;;;;;;;;;3.00;3.00;;;;;23.06;37.80;102161.72;5061907;28;45295;-62
2022/07/17 02:23:40;;;;;;;;;3.00;3.00;;;;;23.01;38.41;102170.22;5061359;28;45299;-62
2022/07/17 02:26:05;;;;;;;;;3.00;3.00;;;;;22.98;38.45;102165.09;5060797;28;45483;-62
2022/07/17 02:28:31;;;;;;;;;4.75;3.50;;;;;22.98;38.08;102166.94;5061708;28;45469;-62
2022/07/17 02:30:56;;;;;;;;;3.00;3.00;;;;;22.90;38.46;102164.94;5061760;28;45493;-62
2022/07/17 02:33:22;;;;;;;;;5.00;2.75;;;;;22.88;38.41;102158.84;5061648;28;45410;-62
2022/07/17 02:35:47;;;;;;;;;5.25;3.00;;;;;22.87;38.67;102167.91;5061351;28;45982;-62
2022/07/17 02:38:13;;;;;;;;;6.00;4.50;;;;;22.86;38.53;102166.19;5061035;28;45229;-63
2022/07/17 02:40:39;;;;;;;;;3.00;3.00;;;;;22.83;38.71;102164.63;5061414;28;45504;-62
2022/07/17 02:43:04;;;;;;;;;3.00;3.00;;;;;22.82;38.98;102170.09;5061696;28;45457;-62
2022/07/17 02:45:30;;;;;;;;;3.25;3.25;;;;;22.80;38.87;102166.72;5061377;28;45342;-62
2022/07/17 02:47:55;;;;;;;;;5.00;3.25;;;;;22.79;39.07;102165.84;5061322;28;45394;-62
2022/07/17 02:50:21;;;;;;;;;3.00;3.00;;;;;22.78;39.09;102166.00;5061617;28;45226;-62
2022/07/17 02:52:49;;;;;;;;;4.00;3.00;;;;;22.72;39.17;102155.78;5060178;28;45598;-62
2022/07/17 02:55:15;;;;;;;;;2.25;2.25;;;;;22.69;38.86;102158.75;5061041;28;46150;-62
2022/07/17 02:57:40;;;;;;;;;3.00;3.00;;;;;22.65;39.25;102158.16;5061162;28;45361;-62
2022/07/17 03:00:09;;;;;;;;;3.00;3.00;;;;;22.62;39.09;102157.59;5061282;28;45291;-63
2022/07/17 03:02:34;;;;;;;;;3.75;3.25;;;;;22.58;39.08;102159.69;5061231;28;45235;-62
2022/07/17 03:05:00;;;;;;;;;5.25;2.25;;;;;22.58;39.40;102157.84;5060947;28;45541;-62
2022/07/17 03:07:25;;;;;;;;;4.75;3.00;;;;;22.55;39.21;102151.91;5093651;27;45394;-62
2022/07/17 03:09:51;;;;;;;;;2.25;2.25;;;;;22.51;39.42;102151.34;5069821;28;45278;-62
2022/07/17 03:12:16;;;;;;;;;5.25;4.00;;;;;22.50;39.21;102154.13;5066653;28;45459;-63
2022/07/17 03:14:42;;;;;;;;;4.50;3.50;;;;;22.47;39.37;102152.56;5061005;28;45753;-62
2022/07/17 03:17:07;;;;;;;;;5.50;4.00;;;;;22.46;39.54;102153.56;5060789;28;45443;-62
2022/07/17 03:19:34;;;;;;;;;3.25;3.00;;;;;22.44;39.43;102155.53;5061183;28;45329;-62
2022/07/17 03:21:59;;;;;;;;;3.75;3.75;;;;;22.44;39.32;102157.38;5061005;28;45252;-62
2022/07/17 03:24:25;;;;;;;;;4.00;3.00;;;;;22.40;39.59;102150.56;5060787;28;45379;-62
2022/07/17 03:26:51;;;;;;;;;3.00;3.00;;;;;22.38;39.85;102152.53;5060682;28;45371;-62
2022/07/17 03:29:17;;;;;;;;;3.00;3.00;;;;;22.34;39.67;102156.44;5061142;28;45314;-62
2022/07/17 03:31:43;;;;;;;;;4.25;3.00;;;;;22.33;39.72;102165.50;5060938;28;45243;-62
2022/07/17 03:34:09;;;;;;;;;4.00;1.00;;;;;22.32;39.77;102161.97;5060666;28;45970;-63
2022/07/17 03:36:34;;;;;;;;;3.25;3.00;;;;;22.31;39.71;102165.63;5062860;28;45280;-62
2022/07/17 03:39:00;;;;;;;;;4.00;2.75;;;;;22.29;40.15;102167.59;5064568;28;45417;-62
2022/07/17 03:41:26;;;;;;;;;3.00;2.25;;;;;22.27;40.04;102178.44;5064248;28;45174;-62
2022/07/17 03:43:51;;;;;;;;;3.00;2.50;;;;;22.26;39.94;102175.91;5064443;28;45668;-62
2022/07/17 03:46:17;;;;;;;;;1.75;1.75;;;;;22.23;39.75;102179.72;5064364;28;45276;-62
2022/07/17 03:48:43;;;;;;;;;3.25;3.00;;;;;22.23;39.86;102165.44;5064523;28;45355;-62
2022/07/17 03:51:09;;;;;;;;;3.25;2.25;;;;;22.19;40.07;102178.25;5064153;28;45330;-63
2022/07/17 03:53:34;;;;;;;;;4.00;2.50;;;;;22.18;39.96;102176.56;5064213;28;45528;-62
2022/07/17 03:56:00;;;;;;;;;2.75;2.50;;;;;22.20;40.10;102181.81;5063849;28;45306;-63
2022/07/17 03:58:26;;;;;;;;;3.00;3.00;;;;;22.17;40.02;102187.44;5064404;28;45422;-63
2022/07/17 04:00:52;;;;;;;;;3.25;2.25;;;;;22.16;40.26;102183.91;5064051;28;45382;-62
2022/07/17 04:03:17;;;;;;;;;3.00;3.00;;;;;22.16;40.03;102180.38;5064071;28;45355;-62
2022/07/17 04:05:43;;;;;;;;;3.00;3.00;;;;;22.13;40.38;102184.19;5063647;28;45200;-63
2022/07/17 04:08:08;;;;;;;;;4.00;4.00;;;;;22.11;40.25;102171.84;5064217;28;45227;-63
2022/07/17 04:10:35;;;;;;;;;6.00;4.00;;;;;22.08;40.13;102172.13;5063788;28;45275;-63
2022/07/17 04:13:01;;;;;;;;;3.75;2.75;;;;;22.05;40.43;102164.31;5068473;28;46228;-64
2022/07/17 04:18:10;;;;;;;;;6.00;5.00;;;;;22.05;40.50;102170.53;5063854;28;45260;-62
2022/07/17 04:20:35;;;;;;;;;8.50;5.00;;;;;22.04;40.56;102171.50;5063884;28;45226;-62
2022/07/17 04:23:01;;;;;;;;;5.50;5.50;;;;;22.02;40.63;102171.63;5063695;28;46003;-62
2022/07/17 04:25:26;;;;;;;;;3.25;2.75;;;;;22.00;40.60;102184.31;5063547;28;45395;-62
2022/07/17 04:27:52;;;;;;;;;5.25;4.75;;;;;22.00;40.68;102188.84;5063891;28;45572;-62
2022/07/17 04:30:17;;;;;;;;;3.50;3.00;;;;;21.98;40.77;102201.53;5063891;28;45302;-62
2022/07/17 04:32:43;;;;;;;;;2.25;2.25;;;;;21.95;40.70;102208.00;5063597;28;45396;-62
2022/07/17 04:35:08;;;;;;;;;3.75;3.50;;;;;21.96;40.74;102212.41;5063458;28;45329;-62
2022/07/17 04:37:33;;;;;;;;;3.75;3.00;;;;;21.95;40.83;102207.16;5063840;28;45558;-62
2022/07/17 04:39:59;;;;;;;;;3.25;3.25;;;;;21.99;40.65;102209.47;5063315;28;45596;-62
2022/07/17 04:42:24;;;;;;;;;2.50;2.50;;;;;21.98;40.80;102210.44;5063345;28;45950;-63
2022/07/17 04:44:50;;;;;;;;;3.50;3.50;;;;;21.98;40.83;102213.13;5063394;28;45314;-62
2022/07/17 04:47:15;;;;;;;;;5.00;3.25;;;;;21.98;40.63;102218.50;5062157;28;45314;-63
2022/07/17 04:49:41;;;;;;;;;3.75;3.25;;;;;22.00;40.86;102223.72;5063519;28;45318;-63
2022/07/17 04:52:06;;;;;;;;;3.00;3.00;;;;;22.00;40.81;102232.63;5063318;28;45516;-62
2022/07/17 04:54:32;;;;;;;;;2.00;2.00;;;;;22.00;40.87;102232.63;5063309;28;45301;-62
2022/07/17 04:56:57;;;;;;;;;2.00;2.00;;;;;22.00;40.99;102221.91;5063308;28;45291;-62
2022/07/17 04:59:23;;;;;;;;;3.25;2.75;;;;;21.96;40.83;102233.00;5063258;28;45393;-62
2022/07/17 05:01:48;;;;;;;;;4.00;4.00;;;;;21.97;41.07;102234.72;5062973;28;45215;-62
2022/07/17 05:04:13;;;;;;;;;4.00;3.00;;;;;21.95;40.97;102242.88;5061608;28;45366;-63
2022/07/17 05:06:39;;;;;;;;;2.50;2.00;;;;;21.94;40.95;102233.13;5063074;28;45250;-63
2022/07/17 05:09:04;;;;;;;;;4.25;2.75;;;;;21.92;40.93;102235.09;5063151;28;45380;-62
2022/07/17 05:11:30;;;;;;;;;3.00;2.75;;;;;21.89;40.99;102242.56;5066088;28;45905;-62
2022/07/17 05:13:56;;;;;;;;;3.00;2.75;;;;;21.86;41.10;102240.97;5063676;27;45669;-62
2022/07/17 05:16:21;;;;;;;;;3.00;2.00;;;;;21.86;41.10;102238.28;5063147;28;45200;-62
2022/07/17 05:18:47;;;;;;;;;3.25;3.25;;;;;21.87;41.10;102234.63;5062926;28;45426;-62
2022/07/17 05:21:14;;;;;;;;;3.00;2.75;;;;;21.87;41.06;102241.81;5062737;28;46162;-62
2022/07/17 05:23:40;;;;;;;;;2.50;2.50;;;;;21.86;41.14;102243.66;5081462;28;45431;-63
2022/07/17 05:26:05;;;;;;;;;3.00;3.00;;;;;21.83;40.96;102243.91;5069801;28;45324;-62
2022/07/17 05:28:31;;;;;;;;;3.50;2.25;;;;;21.81;41.23;102245.88;5062817;28;45352;-62
2022/07/17 05:30:56;;;;;;;;;4.50;3.00;;;;;21.84;41.31;102250.13;5062805;28;45340;-62
2022/07/17 05:33:22;;;;;;;;;2.75;2.75;;;;;21.86;41.25;102246.34;5062423;28;45248;-62
2022/07/17 05:35:47;;;;;;;;;3.00;3.00;;;;;21.87;41.30;102247.19;5062754;28;45273;-62
2022/07/17 05:38:12;;;;;;;;;5.00;3.00;;;;;21.89;41.37;102240.75;5062658;28;46140;-62
2022/07/17 05:40:38;;;;;;;;;2.50;2.50;;;;;21.94;41.15;102249.22;5062307;28;45757;-62
2022/07/17 05:43:03;;;;;;;;;5.50;3.00;;;;;21.99;41.14;102244.34;5062394;28;45271;-62
2022/07/17 05:45:29;;;;;;;;;2.50;2.50;;;;;22.00;41.28;102242.50;5062666;28;45145;-62
2022/07/17 05:47:54;;;;;;;;;4.00;3.25;;;;;22.02;41.12;102236.03;5062315;28;45260;-62
2022/07/17 05:50:20;;;;;;;;;3.00;2.00;;;;;22.03;41.14;102248.47;5062416;28;45221;-62
2022/07/17 05:52:45;;;;;;;;;4.75;3.00;;;;;22.05;41.10;102240.31;5062254;28;45326;-62
2022/07/17 05:55:11;;;;;;;;;3.75;2.25;;;;;22.06;41.16;102249.22;5062336;28;45394;-61
2022/07/17 05:57:36;;;;;;;;;3.50;3.50;;;;;22.07;41.08;102253.59;5062351;28;45522;-63
2022/07/17 06:00:03;;;;;;;;;4.00;3.00;;;;;22.09;41.64;102243.59;5061816;28;46276;-62
2022/07/17 06:02:28;;;;;;;;;3.00;3.00;;;;;22.11;41.09;102245.16;5062025;28;45284;-62
2022/07/17 06:04:54;;;;;;;;;3.25;3.25;;;;;22.14;41.20;102252.97;5062356;28;45295;-62
2022/07/17 06:07:19;;;;;;;;;3.75;3.00;;;;;22.16;41.01;102252.84;5061998;28;45393;-63
2022/07/17 06:09:44;;;;;;;;;4.00;3.25;;;;;22.19;41.11;102244.53;5061805;28;45311;-62
2022/07/17 06:12:10;;;;;;;;;3.50;3.00;;;;;22.22;41.03;102253.19;5066813;28;45323;-63
2022/07/17 06:14:35;;;;;;;;;3.50;2.00;;;;;22.25;41.09;102244.84;5062286;28;45256;-62
2022/07/17 06:17:01;;;;;;;;;7.00;3.00;;;;;22.31;40.97;102248.84;5061837;28;45270;-62
2022/07/17 06:19:26;;;;;;;;;3.00;3.00;;;;;22.40;41.54;102244.53;5062008;28;45279;-62
2022/07/17 06:21:52;;;;;;;;;3.25;3.00;;;;;22.47;41.17;102241.19;5061717;28;45243;-62
2022/07/17 06:24:17;;;;;;;;;2.00;2.00;;;;;22.56;41.36;102252.97;5062008;28;45291;-62
2022/07/17 06:26:43;;;;;;;;;6.50;1.50;;;;;22.67;40.77;102255.59;5061760;28;45350;-62
2022/07/17 06:29:08;;;;;;;;;2.75;2.75;;;;;22.71;40.62;102257.03;5061740;28;45875;-62
2022/07/17 06:31:33;;;;;;;;;2.75;2.75;;;;;22.75;40.73;102245.03;5061585;28;45212;-62
2022/07/17 06:33:59;;;;;;;;;3.50;3.00;;;;;22.83;40.65;102247.06;5062022;28;45125;-62
2022/07/17 06:36:24;;;;;;;;;3.00;3.00;;;;;22.89;40.56;102248.38;5061919;28;45397;-62
2022/07/17 06:38:50;;;;;;;;;2.25;2.00;;;;;22.89;40.68;102251.06;5061595;28;45727;-63
2022/07/17 06:41:15;;;;;;;;;3.25;3.25;;;;;22.96;40.43;102246.84;5061214;28;45239;-62
2022/07/17 06:43:41;;;;;;;;;4.75;3.00;;;;;23.00;40.45;102241.09;5061839;28;45199;-62
2022/07/17 06:46:06;;;;;;;;;3.00;3.00;;;;;23.06;40.51;102239.66;5061673;28;45257;-63
2022/07/17 06:48:32;;;;;;;;;2.50;2.25;;;;;23.13;40.50;102241.69;5061509;28;45707;-62
2022/07/17 06:50:57;;;;;;;;;2.00;2.00;;;;;23.22;40.04;102239.16;5061392;28;45252;-62
2022/07/17 06:53:23;;;;;;;;;3.00;3.00;;;;;23.28;40.62;102236.78;5061668;28;45312;-63
2022/07/17 06:55:48;;;;;;;;;2.75;2.00;;;;;23.36;39.97;102233.41;5085998;27;45456;-62
2022/07/17 06:58:14;;;;;;;;;2.75;2.75;;;;;23.42;40.21;102240.94;5061284;28;45950;-63
2022/07/17 07:00:39;;;;;;;;;2.25;2.25;;;;;23.51;39.98;102236.56;5061314;28;45309;-62
2022/07/17 07:03:05;;;;;;;;;3.50;3.00;;;;;23.58;40.34;102235.00;5061395;28;45251;-62
2022/07/17 07:05:31;;;;;;;;;2.75;2.75;;;;;23.64;40.05;102231.81;5061313;28;45319;-62
2022/07/17 07:07:56;;;;;;;;;3.00;2.50;;;;;23.70;39.51;102243.81;5060926;28;46137;-62
2022/07/17 07:10:22;;;;;;;;;3.00;3.00;;;;;23.73;39.74;102230.09;5060275;28;45268;-62
2022/07/17 07:12:47;;;;;;;;;3.75;2.00;;;;;23.79;39.42;102234.94;5067033;28;45273;-63
2022/07/17 07:15:14;;;;;;;;;3.00;2.00;;;;;23.84;39.71;102238.03;5061162;28;45561;-62
2022/07/17 07:17:40;;;;;;;;;4.50;2.00;;;;;23.88;39.59;102231.41;5060896;28;45362;-63
2022/07/17 07:20:06;;;;;;;;;5.00;3.00;;;;;23.96;39.55;102236.91;5060927;28;45340;-63
2022/07/17 07:22:33;;;;;;;;;3.00;2.75;;;;;24.02;38.83;102239.06;5061088;28;45315;-61
2022/07/17 07:24:59;;;;;;;;;5.00;3.00;;;;;24.09;39.40;102231.22;5060644;28;45369;-62
2022/07/17 07:27:24;;;;;;;;;4.00;2.25;;;;;24.17;38.77;102231.34;5060919;28;45982;-63
2022/07/17 07:29:50;;;;;;;;;3.75;3.50;;;;;24.22;38.58;102232.63;5060872;28;45381;-63
2022/07/17 07:32:16;;;;;;;;;2.00;2.00;;;;;24.29;38.83;102240.16;5061140;28;45301;-62
2022/07/17 07:34:41;;;;;;;;;2.75;2.00;;;;;24.37;38.74;102237.63;5086129;27;45495;-62
2022/07/17 07:37:07;;;;;;;;;1.50;1.50;;;;;24.42;38.45;102236.19;5060813;28;45421;-62
2022/07/17 07:39:33;;;;;;;;;2.00;2.00;;;;;24.46;38.05;102232.19;5060638;28;45221;-62
2022/07/17 07:41:59;;;;;;;;;1.75;1.75;;;;;24.52;38.14;102227.25;5060954;28;45206;-62
2022/07/17 07:44:25;;;;;;;;;2.00;2.00;;;;;24.61;37.74;102234.44;5060870;28;45410;-62
2022/07/17 07:46:51;;;;;;;;;2.50;2.00;;;;;24.67;38.13;102233.88;5060300;28;45427;-62
2022/07/17 07:49:17;;;;;;;;;2.25;2.00;;;;;24.70;37.82;102231.72;5060700;28;45249;-62
2022/07/17 07:51:43;;;;;;;;;2.00;2.00;;;;;24.75;37.54;102225.91;5060777;28;45350;-62
2022/07/17 07:54:08;;;;;;;;;2.25;2.00;;;;;24.79;37.63;102230.81;5060656;28;45307;-62
2022/07/17 07:56:33;;;;;;;;;3.00;1.50;;;;;24.87;37.16;102229.22;5060278;28;45494;-62
2022/07/17 07:58:59;;;;;;;;;4.00;2.00;;;;;24.90;36.94;102219.03;5060306;28;45424;-62
2022/07/17 08:01:25;;;;;;;;;4.00;3.00;;;;;24.95;36.66;102222.09;5060418;28;45375;-62
2022/07/17 08:03:50;;;;;;;;;2.00;2.00;;;;;25.00;36.67;102222.50;5060583;28;45420;-62
2022/07/17 08:06:15;;;;;;;;;2.25;2.00;;;;;25.07;37.01;102224.66;5060279;28;45371;-62
2022/07/17 08:08:41;;;;;;;;;2.75;2.75;;;;;25.12;36.88;102225.91;5060269;28;45468;-62
2022/07/17 08:11:06;;;;;;;;;3.00;3.00;;;;;25.17;36.63;102231.69;5060499;28;45321;-62
2022/07/17 08:13:32;;;;;;;;;2.75;2.75;;;;;25.20;36.80;102227.81;5065279;28;45523;-63
2022/07/17 08:15:58;;;;;;;;;5.75;4.00;;;;;25.21;36.29;102232.25;5060366;28;45243;-63
2022/07/17 08:18:25;;;;;;;;;2.00;2.00;;;;;25.25;36.66;102233.63;5060014;28;45339;-63
2022/07/17 08:20:52;;;;;;;;;3.00;2.00;;;;;25.27;36.10;102229.78;5060082;28;45256;-62
2022/07/17 08:23:17;;;;;;;;;6.00;2.00;;;;;25.36;35.84;102232.56;5063314;28;45265;-62
2022/07/17 08:25:43;;;;;;;;;2.00;2.00;;;;;25.44;36.01;102235.38;5063211;28;45645;-62
2022/07/17 08:28:09;;;;;;;;;3.50;2.00;;;;;25.46;35.98;102230.69;5063549;28;45374;-63
2022/07/17 08:30:36;;;;;;;;;3.75;3.00;;;;;25.49;35.89;102231.22;5063853;28;45341;-62
2022/07/17 08:33:06;;;;;;;;;3.25;3.00;;;;;25.51;35.76;102237.28;5063514;28;45462;-62
2022/07/17 08:35:32;;;;;;;;;1.75;1.75;;;;;25.52;35.72;102230.06;5063439;28;46264;-62
2022/07/17 08:38:00;;;;;;;;;3.00;3.00;;;;;25.57;35.95;102238.53;5063304;28;45363;-62
2022/07/17 08:40:28;;;;;;;;;2.00;2.00;;;;;25.64;35.52;102226.13;5063330;28;45310;-62
2022/07/17 08:42:56;;;;;;;;;2.75;2.00;;;;;25.69;35.41;102234.63;5063634;28;45335;-62
2022/07/17 08:45:22;;;;;;;;;2.75;2.75;;;;;25.73;35.29;102227.94;5063219;28;46249;-62
2022/07/17 08:47:50;;;;;;;;;3.00;3.00;;;;;25.78;35.35;102225.66;5063227;28;45350;-63
2022/07/17 08:50:19;;;;;;;;;4.25;2.00;;;;;25.81;35.20;102219.06;5063485;28;45383;-62
2022/07/17 08:52:44;;;;;;;;;3.50;2.50;;;;;25.87;35.47;102222.00;5063341;28;45227;-63
2022/07/17 08:55:13;;;;;;;;;2.75;2.75;;;;;25.95;35.25;102225.78;5062666;28;45262;-63
2022/07/17 08:57:43;;;;;;;;;3.00;2.00;;;;;26.01;35.22;102214.38;5063051;28;45397;-63
2022/07/17 09:00:15;;;;;;;;;1.75;1.50;;;;;26.08;34.75;102231.66;5063151;28;45230;-62
2022/07/17 09:02:55;;;;;;;;;3.25;3.00;;;;;26.13;34.89;102219.34;5062637;28;45497;-62
2022/07/17 09:05:24;;;;;;;;;1.00;1.00;;;;;26.17;34.41;102223.44;5062420;28;46215;-62
2022/07/17 09:07:49;;;;;;;;;3.00;2.00;;;;;26.21;34.37;102217.72;5062782;28;45344;-62
2022/07/17 09:10:15;;;;;;;;;5.00;2.00;;;;;26.27;34.33;102223.34;5062806;28;45260;-63
2022/07/17 09:12:40;;;;;;;;;2.25;2.25;;;;;26.32;34.07;102218.31;5067580;28;45488;-62
2022/07/17 09:15:24;;;;;;;;;3.00;1.25;;;;;26.38;33.83;102220.41;5062725;28;45973;-63
2022/07/17 09:17:52;;;;;;;;;2.00;2.00;;;;;26.40;33.78;102223.81;5062856;28;45385;-63
2022/07/17 09:20:19;;;;;;;;;4.50;3.00;;;;;26.43;33.86;102218.09;5062769;28;45232;-62
2022/07/17 09:22:57;;;;;;;;;4.50;2.75;;;;;26.51;33.53;102213.75;5062698;28;45185;-63
2022/07/17 09:25:40;;;;;;;;;1.00;1.00;;;;;26.52;33.43;102220.84;5062253;28;45982;-62
2022/07/17 09:28:08;;;;;;;;;3.25;3.00;;;;;26.57;33.29;102226.63;5062623;28;45524;-62
2022/07/17 09:30:36;;;;;;;;;2.00;2.00;;;;;26.61;32.95;102222.56;5062277;28;45398;-62
2022/07/17 09:33:06;;;;;;;;;3.00;1.00;;;;;26.70;33.06;102230.59;5062120;28;45437;-61
2022/07/17 09:35:31;;;;;;;;;2.25;2.00;;;;;26.75;32.90;102222.00;5062322;28;46537;-63
2022/07/17 09:37:57;;;;;;;;;1.00;1.00;;;;;26.82;32.93;102223.03;5061261;28;45470;-62
2022/07/17 09:43:08;;;;;;;;;1.50;1.50;;;;;26.94;32.58;102223.63;5062546;28;45271;-62
2022/07/17 09:45:34;;;;;;;;;2.00;2.00;;;;;27.02;32.24;102220.06;5062067;28;45311;-63
2022/07/17 09:48:01;;;;;;;;;2.50;2.50;;;;;27.12;31.90;102221.69;5062110;28;45346;-62
2022/07/17 09:50:28;;;;;;;;;2.00;2.00;;;;;27.22;31.34;102213.44;5062332;28;45379;-63
2022/07/17 09:52:56;;;;;;;;;2.00;2.00;;;;;27.30;31.28;102212.63;5062329;28;45227;-63
2022/07/17 09:55:28;;;;;;;;;2.75;1.75;;;;;27.35;31.33;102221.94;5061907;28;46243;-63
2022/07/17 09:57:55;;;;;;;;;2.75;2.75;;;;;27.37;31.10;102209.09;5062373;28;45236;-63
2022/07/17 10:00:22;;;;;;;;;2.50;2.00;;;;;27.45;31.44;102211.81;5062351;28;45395;-62
2022/07/17 10:02:48;;;;;;;;;3.00;3.00;;;;;27.54;30.76;102215.38;5062191;28;45458;-62
2022/07/17 10:05:16;;;;;;;;;3.00;2.00;;;;;27.63;31.04;102217.06;5061914;28;45252;-62
2022/07/17 10:07:42;;;;;;;;;4.00;1.50;;;;;27.68;30.29;102222.88;5061832;28;45447;-63
2022/07/17 10:10:09;;;;;;;;;2.50;2.00;;;;;27.72;30.38;102218.81;5061594;28;45285;-63
2022/07/17 10:12:38;;;;;;;;;3.00;1.75;;;;;27.76;30.24;102222.03;5067787;28;45267;-63
2022/07/17 10:15:05;;;;;;;;;2.75;2.75;;;;;27.85;29.70;102217.47;5061447;28;46132;-62
2022/07/17 10:17:30;;;;;;;;;3.00;2.00;;;;;27.94;29.46;102222.72;5061814;28;45326;-62
2022/07/17 10:19:57;;;;;;;;;2.25;2.00;;;;;28.00;29.03;102213.94;5061946;28;45395;-62
2022/07/17 10:22:23;;;;;;;;;2.00;2.00;;;;;28.06;29.31;102217.81;5062126;28;45245;-62
2022/07/17 10:24:52;;;;;;;;;2.00;2.00;;;;;28.13;29.00;102215.28;5061280;28;45457;-63
2022/07/17 10:27:36;;;;;;;;;2.00;2.00;;;;;28.17;29.10;102213.91;5061573;28;45322;-63
2022/07/17 10:30:06;;;;;;;;;1.50;1.50;;;;;28.27;29.09;102217.28;5061740;28;45292;-63
2022/07/17 10:32:33;;;;;;;;;2.00;2.00;;;;;28.35;28.48;102207.31;5060341;28;45388;-63
2022/07/17 10:35:01;;;;;;;;;1.25;1.25;;;;;28.47;28.92;102220.53;5061384;28;46338;-62
2022/07/17 10:37:40;;;;;;;;;1.75;1.75;;;;;28.55;28.62;102218.63;5061719;28;45247;-62
2022/07/17 10:40:06;;;;;;;;;3.00;2.00;;;;;28.60;28.98;102212.69;5061637;28;45350;-63
2022/07/17 10:42:45;;;;;;;;;3.00;2.00;;;;;28.64;28.74;102216.75;5061556;28;45304;-63
2022/07/17 10:45:23;;;;;;;;;3.25;2.00;;;;;28.67;28.84;102229.09;5060333;28;46125;-63
2022/07/17 10:48:05;;;;;;;;;2.00;2.00;;;;;28.71;28.56;102234.00;5061143;28;45383;-62
2022/07/17 10:50:35;;;;;;;;;1.00;1.00;;;;;28.74;28.36;102220.09;5061464;28;45306;-62
2022/07/17 10:53:17;;;;;;;;;2.00;2.00;;;;;28.79;27.69;102225.00;5061426;28;45629;-63
2022/07/17 10:55:44;;;;;;;;;2.00;2.00;;;;;28.82;28.28;102222.78;5060875;28;45445;-63
2022/07/17 10:58:16;;;;;;;;;2.75;2.00;;;;;28.88;28.36;102222.09;5061104;28;45328;-63
2022/07/17 11:00:41;;;;;;;;;1.00;1.00;;;;;28.94;28.05;102217.03;5061293;28;45391;-63
2022/07/17 11:03:11;;;;;;;;;2.00;2.00;;;;;28.99;27.62;102214.59;5061245;28;45469;-63
2022/07/17 11:05:36;;;;;;;;;2.00;2.00;;;;;29.05;27.13;102209.31;5061063;28;45458;-63
2022/07/17 11:08:06;;;;;;;;;2.75;2.00;;;;;29.07;26.90;102207.31;5061018;28;45212;-62
2022/07/17 11:10:32;;;;;;;;;3.00;3.00;;;;;29.10;27.30;102206.94;5060996;28;45288;-63
2022/07/17 11:13:11;;;;;;;;;0.25;0.25;;;;;29.17;27.33;102215.22;5066536;28;45358;-64
2022/07/17 11:15:47;;;;;;;;;1.50;1.25;;;;;29.21;26.74;102208.41;5060802;28;46223;-63
2022/07/17 11:18:19;;;;;;;;;2.50;1.50;;;;;29.25;26.33;102209.75;5060778;28;45257;-63
2022/07/17 11:20:52;;;;;;;;;1.75;1.75;;;;;29.32;26.90;102207.16;5061139;28;45327;-62
2022/07/17 11:23:18;;;;;;;;;2.25;2.25;;;;;29.29;26.30;102205.63;5060969;28;45484;-63
2022/07/17 11:26:00;;;;;;;;;1.75;1.50;;;;;29.34;26.77;102203.25;5060731;28;45385;-63
2022/07/17 11:28:36;;;;;;;;;1.00;1.00;;;;;29.45;25.95;102204.69;5060728;28;45314;-63